Hutchinson County Airport - Borger, Texas, United States - FAA: BGD - ICAO: KBGD - IATA: BGD

 
  Longest Runway: 6,300 feet   Approach Types:    Customs Landing Rights Airport: No   Port of Entry: No

Local Forecast

Overnight (2/13): Patchy fog after 3am. Otherwise, partly cloudy, with a low around 32. Southeast wind around 10 mph.

Saturday (2/13): Patchy fog before 8am. Otherwise, sunny, with a high near 67. Wind chill values between 23 and 33 early. Breezy, with a south wind 10 to 15 mph increasing to 20 to 25 mph in the afternoon. Winds could gust as high as 30 mph.

Saturday Night (2/13): Mostly clear, with a low around 39. South wind 10 to 20 mph becoming north northwest after midnight.

Sunday (2/14): Mostly sunny, with a high near 62. Wind chill values between 31 and 41 early. North wind 5 to 15 mph becoming east in the afternoon.

Sunday Night (2/14): Partly cloudy, with a low around 34. East wind around 5 mph becoming west after midnight.

Washington's Birthday (2/15): Sunny, with a high near 65. Northwest wind 10 to 15 mph, with gusts as high as 20 mph.

Monday Night (2/15): Mostly clear, with a low around 39. West southwest wind 5 to 10 mph.



Current Weather (METAR)

2016/02/13 05:51 KBGD 130551Z AUTO 12008KT 10SM CLR 04/M01 A3036 RMK AO2 SLP275 T00441006 10172 20044 401890011 51007

BORGER HUTCHINSON CO AIRPORT , TX, United States (KBGD) 35-42N 101-24W 927M Feb 13, 2016 - 12:51 AM EST / 2016.02.13 0551 UTC Wind: from the ESE (120 degrees) at 9 MPH (8 KT):0 Visibility: 10 mile(s):0 Sky conditions: clear Temperature: 39.9 F (4.4 C) Dew Point: 30.9 F (-0.6 C) Relative Humidity: 69% Pressure (altimeter): 30.36 in. Hg (1028 hPa) Pressure tendency: 0.02 inches (0.7 hPa) higher than three hours ago ob: KBGD 130551Z AUTO 12008KT 10SM CLR 04/M01 A3036 RMK AO2 SLP275 T00441006 10172 20044 401890011 51007 cycle: 6

Terminal Forecast (TAF)